createdAt,value
2018-11-27T00:00:03.172Z,771.48
2018-11-27T00:00:07.462Z,771.48
2018-11-27T00:00:11.758Z,771.49
2018-11-27T00:00:15.947Z,771.52
2018-11-27T00:00:20.252Z,771.51
2018-11-27T00:00:24.546Z,771.51
2018-11-27T00:00:28.740Z,771.49
2018-11-27T00:00:33.024Z,771.5
2018-11-27T00:00:37.333Z,771.44
2018-11-27T00:00:41.631Z,771.45
2018-11-27T00:00:45.920Z,771.41
2018-11-27T00:00:50.220Z,771.5
2018-11-27T00:00:54.517Z,771.48
2018-11-27T00:00:58.809Z,771.49
2018-11-27T00:01:03.106Z,771.5
2018-11-27T00:01:07.391Z,771.52
2018-11-27T00:01:11.686Z,771.51
2018-11-27T00:01:15.975Z,771.49
2018-11-27T00:01:20.268Z,771.51
2018-11-27T00:01:24.561Z,771.52
2018-11-27T00:01:28.853Z,771.44
2018-11-27T00:01:33.141Z,771.48
2018-11-27T00:01:37.435Z,771.48
2018-11-27T00:01:41.725Z,771.48
2018-11-27T00:01:46.018Z,771.52
2018-11-27T00:01:50.131Z,771.54
2018-11-27T00:01:54.423Z,771.5
2018-11-27T00:01:58.937Z,771.51
2018-11-27T00:02:03.188Z,771.49
2018-11-27T00:02:07.490Z,771.46
2018-11-27T00:02:11.781Z,771.48
2018-11-27T00:02:16.096Z,771.5
2018-11-27T00:02:20.194Z,771.55
2018-11-27T00:02:24.481Z,771.51
2018-11-27T00:02:28.774Z,771.51
2018-11-27T00:02:33.067Z,771.57
2018-11-27T00:02:37.362Z,771.53
2018-11-27T00:02:41.653Z,771.51
2018-11-27T00:02:45.993Z,771.52
2018-11-27T00:02:50.280Z,771.53
2018-11-27T00:02:54.483Z,771.55
2018-11-27T00:02:58.773Z,771.52
2018-11-27T00:03:03.080Z,771.55
2018-11-27T00:03:07.390Z,771.51
2018-11-27T00:03:11.587Z,771.54
2018-11-27T00:03:15.873Z,771.56
2018-11-27T00:03:20.215Z,771.54
2018-11-27T00:03:24.507Z,771.53
2018-11-27T00:03:28.844Z,771.52
2018-11-27T00:03:33.132Z,771.55
2018-11-27T00:03:37.422Z,771.54
2018-11-27T00:03:41.729Z,771.53
2018-11-27T00:03:46.026Z,771.54
2018-11-27T00:03:50.317Z,771.55
2018-11-27T00:03:54.515Z,771.52
2018-11-27T00:03:58.812Z,771.56
2018-11-27T00:04:03.266Z,771.56
2018-11-27T00:04:07.566Z,771.58
2018-11-27T00:04:11.757Z,771.56
2018-11-27T00:04:16.058Z,771.55
2018-11-27T00:04:20.351Z,771.54
2018-11-27T00:04:24.641Z,771.55
2018-11-27T00:04:28.934Z,771.57
2018-11-27T00:04:33.126Z,771.53
2018-11-27T00:04:37.419Z,771.56
2018-11-27T00:04:41.713Z,771.57
2018-11-27T00:04:46.002Z,771.56
2018-11-27T00:04:50.291Z,771.58
2018-11-27T00:04:54.583Z,771.55
2018-11-27T00:04:58.881Z,771.56
2018-11-27T00:05:03.186Z,771.57
2018-11-27T00:05:07.475Z,771.51
2018-11-27T00:05:11.768Z,771.5
2018-11-27T00:05:16.060Z,771.53
2018-11-27T00:05:20.345Z,771.56
2018-11-27T00:05:24.541Z,771.58
2018-11-27T00:05:28.833Z,771.52
2018-11-27T00:05:33.029Z,771.56
2018-11-27T00:05:37.350Z,771.54
2018-11-27T00:05:41.547Z,771.59
2018-11-27T00:05:45.839Z,771.59
2018-11-27T00:05:50.034Z,771.58
2018-11-27T00:05:54.324Z,771.59
2018-11-27T00:05:58.622Z,771.57
2018-11-27T00:06:02.821Z,771.56
2018-11-27T00:06:07.114Z,771.57
2018-11-27T00:06:11.403Z,771.6
2018-11-27T00:06:15.692Z,771.57
2018-11-27T00:06:19.980Z,771.57
2018-11-27T00:06:24.176Z,771.55
2018-11-27T00:06:28.473Z,771.59
2018-11-27T00:06:32.763Z,771.6
2018-11-27T00:06:37.061Z,771.61
2018-11-27T00:06:41.355Z,771.59
2018-11-27T00:06:45.648Z,771.6
2018-11-27T00:06:49.942Z,771.61
2018-11-27T00:06:54.232Z,771.6
2018-11-27T00:06:58.519Z,771.57
2018-11-27T00:07:02.819Z,771.59
2018-11-27T00:07:07.014Z,771.56
2018-11-27T00:07:11.308Z,771.57
2018-11-27T00:07:15.599Z,771.57
2018-11-27T00:07:19.805Z,771.57
2018-11-27T00:07:23.999Z,771.59
2018-11-27T00:07:28.291Z,771.59
2018-11-27T00:07:32.586Z,771.59
2018-11-27T00:07:36.884Z,771.56
2018-11-27T00:07:41.175Z,771.6
2018-11-27T00:07:45.424Z,771.58
2018-11-27T00:07:49.719Z,771.59
2018-11-27T00:07:54.676Z,771.59
2018-11-27T00:07:59.001Z,771.58
2018-11-27T00:08:03.345Z,771.67
2018-11-27T00:08:07.650Z,771.59
2018-11-27T00:08:11.940Z,771.58
2018-11-27T00:08:16.231Z,771.58
2018-11-27T00:08:20.522Z,771.59
2018-11-27T00:08:24.814Z,771.59
2018-11-27T00:08:29.105Z,771.61
2018-11-27T00:08:33.399Z,771.59
2018-11-27T00:08:37.688Z,771.6
2018-11-27T00:08:41.977Z,771.59
2018-11-27T00:08:46.280Z,771.56
2018-11-27T00:08:50.570Z,771.59
2018-11-27T00:08:54.858Z,771.59
2018-11-27T00:08:59.149Z,771.6
2018-11-27T00:09:03.546Z,771.58
2018-11-27T00:09:07.837Z,771.62
2018-11-27T00:09:12.125Z,771.58
2018-11-27T00:09:16.316Z,771.56
2018-11-27T00:09:20.508Z,771.61
2018-11-27T00:09:24.800Z,771.56
2018-11-27T00:09:29.094Z,771.62
2018-11-27T00:09:33.389Z,771.61
2018-11-27T00:09:37.680Z,771.61
2018-11-27T00:09:41.976Z,771.59
2018-11-27T00:09:46.274Z,771.62
2018-11-27T00:09:50.579Z,771.57
2018-11-27T00:09:54.871Z,771.57
2018-11-27T00:09:59.168Z,771.6
2018-11-27T00:10:03.465Z,771.57
2018-11-27T00:10:07.761Z,771.58
2018-11-27T00:10:11.959Z,771.57
2018-11-27T00:10:16.256Z,771.61
2018-11-27T00:10:20.552Z,771.59
2018-11-27T00:10:24.743Z,771.59
2018-11-27T00:10:29.029Z,771.56
2018-11-27T00:10:33.331Z,771.54
2018-11-27T00:10:37.635Z,771.58
2018-11-27T00:10:41.745Z,771.58
2018-11-27T00:10:46.036Z,771.6
2018-11-27T00:10:50.329Z,771.57
2018-11-27T00:10:54.621Z,771.59
2018-11-27T00:10:58.911Z,771.59
2018-11-27T00:11:03.200Z,771.58
2018-11-27T00:11:07.490Z,771.57
2018-11-27T00:11:11.780Z,771.59
2018-11-27T00:11:16.065Z,771.6
2018-11-27T00:11:20.356Z,771.59
2018-11-27T00:11:24.649Z,771.6
2018-11-27T00:11:28.939Z,771.55
2018-11-27T00:11:33.233Z,771.59
2018-11-27T00:11:37.527Z,771.61
2018-11-27T00:11:41.819Z,771.59
2018-11-27T00:11:46.109Z,771.6
2018-11-27T00:11:50.403Z,771.6
2018-11-27T00:11:54.693Z,771.59
2018-11-27T00:11:58.989Z,771.59
2018-11-27T00:12:03.295Z,771.61
2018-11-27T00:12:07.592Z,771.62
2018-11-27T00:12:11.879Z,771.59
2018-11-27T00:12:16.174Z,771.59
2018-11-27T00:12:20.465Z,771.6
2018-11-27T00:12:24.758Z,771.55
2018-11-27T00:12:29.047Z,771.6
2018-11-27T00:12:33.340Z,771.59
2018-11-27T00:12:37.532Z,771.61
2018-11-27T00:12:41.834Z,771.59
2018-11-27T00:12:46.083Z,771.6
2018-11-27T00:12:50.280Z,771.59
2018-11-27T00:12:54.515Z,771.59
2018-11-27T00:12:58.714Z,771.59
2018-11-27T00:13:02.819Z,771.58
2018-11-27T00:13:07.066Z,771.6
2018-11-27T00:13:11.356Z,771.62
2018-11-27T00:13:15.646Z,771.6
2018-11-27T00:13:19.950Z,771.6
2018-11-27T00:13:24.281Z,771.59
2018-11-27T00:13:28.573Z,771.6
2018-11-27T00:13:32.865Z,771.6
2018-11-27T00:13:37.154Z,771.57
2018-11-27T00:13:41.452Z,771.54
2018-11-27T00:13:45.651Z,771.49
2018-11-27T00:13:49.945Z,771.55
2018-11-27T00:13:54.237Z,771.5
2018-11-27T00:13:58.528Z,771.53
2018-11-27T00:14:02.815Z,771.51
2018-11-27T00:14:07.009Z,771.58
2018-11-27T00:14:11.299Z,771.57
2018-11-27T00:14:15.593Z,771.55
2018-11-27T00:14:19.881Z,771.59
2018-11-27T00:14:24.178Z,771.56
2018-11-27T00:14:28.468Z,771.55
2018-11-27T00:14:32.762Z,771.54
2018-11-27T00:14:37.049Z,771.54
2018-11-27T00:14:41.240Z,771.6
2018-11-27T00:14:45.441Z,771.55
2018-11-27T00:14:49.727Z,771.55
2018-11-27T00:14:54.015Z,771.58
2018-11-27T00:14:58.314Z,771.57
2018-11-27T00:15:02.606Z,771.58
2018-11-27T00:15:06.893Z,771.57
2018-11-27T00:15:11.177Z,771.56
2018-11-27T00:15:15.473Z,771.57
2018-11-27T00:15:19.763Z,771.48
2018-11-27T00:15:23.953Z,771.46
2018-11-27T00:15:28.248Z,771.49
2018-11-27T00:15:32.552Z,771.48
2018-11-27T00:15:36.744Z,771.47
2018-11-27T00:15:40.935Z,771.5
2018-11-27T00:15:45.224Z,771.51
2018-11-27T00:15:49.511Z,771.46
2018-11-27T00:15:53.701Z,771.5
2018-11-27T00:15:57.991Z,771.5
2018-11-27T00:16:02.285Z,771.55
2018-11-27T00:16:06.475Z,771.56
2018-11-27T00:16:10.768Z,771.54
2018-11-27T00:16:14.957Z,771.51
2018-11-27T00:16:19.248Z,771.53
2018-11-27T00:16:23.544Z,771.54
2018-11-27T00:16:27.848Z,771.53
2018-11-27T00:16:32.140Z,771.53
2018-11-27T00:16:36.425Z,771.55
2018-11-27T00:16:40.718Z,771.53
2018-11-27T00:16:45.011Z,771.54
2018-11-27T00:16:49.303Z,771.55
2018-11-27T00:16:53.503Z,771.52
2018-11-27T00:16:57.794Z,771.54
2018-11-27T00:17:01.995Z,771.53
2018-11-27T00:17:06.287Z,771.53
2018-11-27T00:17:10.581Z,771.53
2018-11-27T00:17:14.877Z,771.53
2018-11-27T00:17:19.176Z,771.54
2018-11-27T00:17:23.471Z,771.56
2018-11-27T00:17:27.761Z,771.55
2018-11-27T00:17:32.049Z,771.56
2018-11-27T00:17:36.345Z,771.55
2018-11-27T00:17:40.646Z,771.56
2018-11-27T00:17:44.938Z,771.5
2018-11-27T00:17:49.234Z,771.55
2018-11-27T00:17:53.532Z,771.55
2018-11-27T00:17:58.731Z,771.54
2018-11-27T00:18:02.997Z,771.55
2018-11-27T00:18:07.205Z,771.5
2018-11-27T00:18:11.495Z,771.57
2018-11-27T00:18:15.789Z,771.54
2018-11-27T00:18:19.990Z,771.53
2018-11-27T00:18:24.282Z,771.54
2018-11-27T00:18:28.600Z,771.53
2018-11-27T00:18:32.894Z,771.54
2018-11-27T00:18:37.196Z,771.53
2018-11-27T00:18:41.491Z,771.53
2018-11-27T00:18:45.785Z,771.52
2018-11-27T00:18:50.097Z,771.54
2018-11-27T00:18:54.400Z,771.54
2018-11-27T00:18:58.699Z,771.53
2018-11-27T00:19:02.991Z,771.56
2018-11-27T00:19:07.287Z,771.56
2018-11-27T00:19:11.580Z,771.55
2018-11-27T00:19:15.927Z,771.52
2018-11-27T00:19:20.219Z,771.52
2018-11-27T00:19:24.513Z,771.56
2018-11-27T00:19:28.806Z,771.55
2018-11-27T00:19:33.095Z,771.53
2018-11-27T00:19:37.393Z,771.52
2018-11-27T00:19:41.683Z,771.54
2018-11-27T00:19:45.973Z,771.57
2018-11-27T00:19:50.267Z,771.53
2018-11-27T00:19:54.559Z,771.56
2018-11-27T00:19:58.860Z,771.52
2018-11-27T00:20:03.154Z,771.54
2018-11-27T00:20:07.439Z,771.55
2018-11-27T00:20:11.738Z,771.53
2018-11-27T00:20:15.941Z,771.56
2018-11-27T00:20:20.241Z,771.53
2018-11-27T00:20:24.550Z,771.51
2018-11-27T00:20:28.847Z,771.52
2018-11-27T00:20:33.154Z,771.54
2018-11-27T00:20:37.254Z,771.54
2018-11-27T00:20:41.547Z,771.55
2018-11-27T00:20:45.737Z,771.53
2018-11-27T00:20:50.073Z,771.54
2018-11-27T00:20:54.265Z,771.56
2018-11-27T00:20:58.560Z,771.54
2018-11-27T00:21:02.845Z,771.51
2018-11-27T00:21:07.135Z,771.54
2018-11-27T00:21:11.423Z,771.53
2018-11-27T00:21:15.711Z,771.54
2018-11-27T00:21:19.902Z,771.55
2018-11-27T00:21:24.191Z,771.54
2018-11-27T00:21:28.487Z,771.55
2018-11-27T00:21:32.779Z,771.55
2018-11-27T00:21:37.074Z,771.56
2018-11-27T00:21:41.372Z,771.56
2018-11-27T00:21:45.668Z,771.55
2018-11-27T00:21:49.954Z,771.59
2018-11-27T00:21:54.244Z,771.48
2018-11-27T00:21:58.543Z,771.53
2018-11-27T00:22:02.748Z,771.52
2018-11-27T00:22:07.042Z,771.55
2018-11-27T00:22:11.332Z,771.57
2018-11-27T00:22:15.623Z,771.55
2018-11-27T00:22:19.916Z,771.59
2018-11-27T00:22:24.256Z,771.56
2018-11-27T00:22:28.551Z,771.61
2018-11-27T00:22:32.849Z,771.57
2018-11-27T00:22:37.044Z,771.55
2018-11-27T00:22:41.348Z,771.55
2018-11-27T00:22:45.551Z,771.57
2018-11-27T00:22:49.738Z,771.56
2018-11-27T00:22:53.934Z,771.57
2018-11-27T00:22:58.261Z,771.56
2018-11-27T00:23:02.557Z,771.55
2018-11-27T00:23:06.755Z,771.57
2018-11-27T00:23:11.047Z,771.57
2018-11-27T00:23:15.348Z,771.58
2018-11-27T00:23:19.640Z,771.57
2018-11-27T00:23:23.828Z,771.61
2018-11-27T00:23:28.026Z,771.55
2018-11-27T00:23:32.315Z,771.57
2018-11-27T00:23:36.600Z,771.56
2018-11-27T00:23:40.797Z,771.56
2018-11-27T00:23:45.091Z,771.6
2018-11-27T00:23:49.380Z,771.57
2018-11-27T00:23:53.671Z,771.61
2018-11-27T00:23:57.964Z,771.56
2018-11-27T00:24:02.266Z,771.54
2018-11-27T00:24:06.463Z,771.56
2018-11-27T00:24:10.755Z,771.6
2018-11-27T00:24:15.056Z,771.59
2018-11-27T00:24:19.350Z,771.62
2018-11-27T00:24:23.644Z,771.62
2018-11-27T00:24:27.841Z,771.6
2018-11-27T00:24:32.133Z,771.64
2018-11-27T00:24:36.424Z,771.65
2018-11-27T00:24:40.614Z,771.58
2018-11-27T00:24:44.907Z,771.6
2018-11-27T00:24:49.213Z,771.61
2018-11-27T00:24:53.404Z,771.6
2018-11-27T00:24:57.696Z,771.62
2018-11-27T00:25:01.999Z,771.56
2018-11-27T00:25:06.285Z,771.59
2018-11-27T00:25:10.586Z,771.57
2018-11-27T00:25:14.876Z,771.58
2018-11-27T00:25:19.173Z,771.58
2018-11-27T00:25:23.370Z,771.58
2018-11-27T00:25:27.660Z,771.58
2018-11-27T00:25:31.948Z,771.58
2018-11-27T00:25:36.246Z,771.56
2018-11-27T00:25:40.536Z,771.56
2018-11-27T00:25:44.826Z,771.6
2018-11-27T00:25:49.019Z,771.57
2018-11-27T00:25:53.317Z,771.56
2018-11-27T00:25:57.610Z,771.57
2018-11-27T00:26:01.911Z,771.56
2018-11-27T00:26:06.208Z,771.53
2018-11-27T00:26:11.548Z,771.54
2018-11-27T00:26:15.739Z,771.53
2018-11-27T00:26:20.033Z,771.56
2018-11-27T00:26:24.330Z,771.53
2018-11-27T00:26:28.536Z,771.52
2018-11-27T00:26:32.738Z,771.54
2018-11-27T00:26:37.030Z,771.52
2018-11-27T00:26:41.323Z,771.52
2018-11-27T00:26:45.616Z,771.56
2018-11-27T00:26:49.822Z,771.56
2018-11-27T00:26:54.015Z,771.56
2018-11-27T00:27:30.311Z,771.55
2018-11-27T00:27:34.599Z,771.57
2018-11-27T00:27:38.788Z,771.55
2018-11-27T00:27:43.077Z,771.54
2018-11-27T00:27:47.371Z,771.52
2018-11-27T00:27:51.661Z,771.55
2018-11-27T00:27:55.854Z,771.59
2018-11-27T00:28:00.151Z,771.55
2018-11-27T00:28:04.446Z,771.58
2018-11-27T00:28:08.741Z,771.56
2018-11-27T00:28:13.035Z,771.53
2018-11-27T00:28:17.321Z,771.55
2018-11-27T00:28:21.511Z,771.55
2018-11-27T00:28:25.811Z,771.55
2018-11-27T00:28:30.096Z,771.54
2018-11-27T00:28:35.316Z,771.53
2018-11-27T00:28:39.601Z,771.54
2018-11-27T00:28:43.808Z,771.55
2018-11-27T00:28:48.107Z,771.58
2018-11-27T00:28:52.397Z,771.57
2018-11-27T00:28:56.589Z,771.52
2018-11-27T00:29:00.878Z,771.52
2018-11-27T00:29:05.212Z,771.55
2018-11-27T00:29:09.518Z,771.54
2018-11-27T00:29:13.808Z,771.56
2018-11-27T00:29:18.104Z,771.54
2018-11-27T00:29:22.389Z,771.52
2018-11-27T00:29:26.677Z,771.55
2018-11-27T00:29:30.979Z,771.57
2018-11-27T00:29:35.272Z,771.59
2018-11-27T00:29:39.574Z,771.56
2018-11-27T00:29:43.865Z,771.55
2018-11-27T00:29:48.154Z,771.54
2018-11-27T00:29:52.445Z,771.58
2018-11-27T00:29:56.634Z,771.58
2018-11-27T00:30:00.936Z,771.56
2018-11-27T00:30:05.227Z,771.59
2018-11-27T00:30:09.523Z,771.56
2018-11-27T00:30:13.728Z,771.55
2018-11-27T00:30:17.931Z,771.56
2018-11-27T00:30:21.943Z,771.55
2018-11-27T00:30:26.235Z,771.6
2018-11-27T00:30:30.325Z,771.57
2018-11-27T00:30:34.526Z,771.55
2018-11-27T00:30:38.822Z,771.58
2018-11-27T00:30:43.161Z,771.56
2018-11-27T00:30:47.450Z,771.57
2018-11-27T00:30:51.743Z,771.57
2018-11-27T00:30:56.031Z,771.57
2018-11-27T00:31:00.321Z,771.57
2018-11-27T00:31:04.618Z,771.58
2018-11-27T00:31:08.916Z,771.61
2018-11-27T00:31:13.208Z,771.54
2018-11-27T00:31:17.497Z,771.58
2018-11-27T00:31:21.801Z,771.6
2018-11-27T00:31:26.100Z,771.58
2018-11-27T00:31:30.393Z,771.58
2018-11-27T00:31:34.688Z,771.6
2018-11-27T00:31:38.982Z,771.54
2018-11-27T00:31:43.270Z,771.55
2018-11-27T00:31:47.566Z,771.53
2018-11-27T00:31:51.855Z,771.6
2018-11-27T00:31:56.145Z,771.61
2018-11-27T00:32:00.448Z,771.58
2018-11-27T00:32:04.737Z,771.58
2018-11-27T00:32:09.029Z,771.55
2018-11-27T00:32:13.228Z,771.56
2018-11-27T00:32:17.425Z,771.56
2018-11-27T00:32:21.714Z,771.55
2018-11-27T00:32:26.008Z,771.55
2018-11-27T00:32:30.306Z,771.58
2018-11-27T00:32:34.600Z,771.54
2018-11-27T00:32:38.796Z,771.57
2018-11-27T00:32:43.084Z,771.53
2018-11-27T00:32:47.377Z,771.53
2018-11-27T00:32:51.671Z,771.54
2018-11-27T00:32:55.868Z,771.53
2018-11-27T00:33:00.165Z,771.55
2018-11-27T00:33:04.457Z,771.57
2018-11-27T00:33:08.743Z,771.61
2018-11-27T00:33:13.031Z,771.58
2018-11-27T00:33:17.370Z,771.57
2018-11-27T00:33:21.667Z,771.58
2018-11-27T00:33:25.950Z,771.59
2018-11-27T00:33:30.260Z,771.62
2018-11-27T00:33:34.457Z,771.6
2018-11-27T00:33:38.648Z,771.62
2018-11-27T00:33:42.933Z,771.6
2018-11-27T00:33:47.221Z,771.63
2018-11-27T00:33:51.508Z,771.58
2018-11-27T00:33:55.796Z,771.6
2018-11-27T00:34:00.083Z,771.57
2018-11-27T00:34:04.314Z,771.59
2018-11-27T00:34:08.623Z,771.6
2018-11-27T00:34:12.917Z,771.61
2018-11-27T00:34:17.204Z,771.6
2018-11-27T00:34:21.496Z,771.62
2018-11-27T00:34:25.783Z,771.62
2018-11-27T00:34:29.981Z,771.6
2018-11-27T00:34:34.184Z,771.62
2018-11-27T00:34:38.469Z,771.63
2018-11-27T00:34:42.756Z,771.62
2018-11-27T00:34:47.086Z,771.58
2018-11-27T00:34:51.375Z,771.65
2018-11-27T00:34:55.667Z,771.64
2018-11-27T00:34:59.958Z,771.62
2018-11-27T00:35:04.258Z,771.67
2018-11-27T00:35:08.543Z,771.59
2018-11-27T00:35:12.737Z,771.61
2018-11-27T00:35:17.024Z,771.58
2018-11-27T00:35:21.325Z,771.67
2018-11-27T00:35:25.519Z,771.63
2018-11-27T00:35:29.710Z,771.63
2018-11-27T00:35:33.805Z,771.62
2018-11-27T00:35:38.095Z,771.63
2018-11-27T00:35:42.191Z,771.63
2018-11-27T00:35:46.486Z,771.64
2018-11-27T00:35:50.826Z,771.6
2018-11-27T00:35:55.114Z,771.62
2018-11-27T00:35:59.410Z,771.66
2018-11-27T00:36:03.708Z,771.63
2018-11-27T00:36:08.007Z,771.65
2018-11-27T00:36:12.311Z,771.62
2018-11-27T00:36:16.599Z,771.67
2018-11-27T00:36:20.890Z,771.67
2018-11-27T00:36:25.194Z,771.62
2018-11-27T00:36:29.480Z,771.65
2018-11-27T00:36:33.775Z,771.61
2018-11-27T00:36:38.071Z,771.65
2018-11-27T00:36:42.359Z,771.64
2018-11-27T00:36:46.646Z,771.63
2018-11-27T00:36:50.841Z,771.63
2018-11-27T00:36:55.136Z,771.65
2018-11-27T00:36:59.429Z,771.63
2018-11-27T00:37:03.715Z,771.62
2018-11-27T00:37:08.003Z,771.63
2018-11-27T00:37:12.203Z,771.62
2018-11-27T00:37:16.301Z,771.62
2018-11-27T00:37:20.592Z,771.61
2018-11-27T00:37:24.888Z,771.63
2018-11-27T00:37:29.173Z,771.59
2018-11-27T00:37:33.362Z,771.67
2018-11-27T00:37:37.556Z,771.68
2018-11-27T00:37:41.761Z,771.61
2018-11-27T00:37:46.058Z,771.67
2018-11-27T00:37:50.424Z,771.64
2018-11-27T00:37:54.616Z,771.66
2018-11-27T00:37:58.921Z,771.63
2018-11-27T00:38:03.208Z,771.64
2018-11-27T00:38:07.494Z,771.64
2018-11-27T00:38:11.778Z,771.62
2018-11-27T00:38:16.065Z,771.63
2018-11-27T00:38:20.360Z,771.65
2018-11-27T00:38:24.648Z,771.61
2018-11-27T00:38:28.935Z,771.6
2018-11-27T00:38:33.218Z,771.65
2018-11-27T00:38:37.507Z,771.59
2018-11-27T00:38:41.806Z,771.66
2018-11-27T00:38:46.008Z,771.63
2018-11-27T00:38:50.292Z,771.66
2018-11-27T00:38:54.579Z,771.59
2018-11-27T00:38:58.872Z,771.59
2018-11-27T00:39:03.314Z,771.59
2018-11-27T00:39:07.602Z,771.61
2018-11-27T00:39:11.904Z,771.66
2018-11-27T00:39:16.193Z,771.61
2018-11-27T00:39:20.488Z,771.63
2018-11-27T00:39:24.585Z,771.67
2018-11-27T00:39:28.879Z,771.61
2018-11-27T00:39:33.165Z,771.59
2018-11-27T00:39:37.366Z,771.61
2018-11-27T00:39:41.656Z,771.61
2018-11-27T00:39:45.951Z,771.61
2018-11-27T00:39:50.235Z,771.62
2018-11-27T00:39:54.577Z,771.62
2018-11-27T00:39:58.865Z,771.63
2018-11-27T00:40:03.172Z,771.64
2018-11-27T00:40:07.468Z,771.58
2018-11-27T00:40:11.759Z,771.6
2018-11-27T00:40:16.008Z,771.62
2018-11-27T00:40:20.306Z,771.56
2018-11-27T00:40:24.629Z,771.56
2018-11-27T00:40:28.920Z,771.58
2018-11-27T00:40:33.214Z,771.64
2018-11-27T00:40:37.547Z,771.67
2018-11-27T00:40:41.831Z,771.61
2018-11-27T00:40:46.162Z,771.69
2018-11-27T00:40:50.364Z,771.54
2018-11-27T00:40:54.557Z,771.57
2018-11-27T00:40:58.849Z,771.59
2018-11-27T00:41:03.140Z,771.58
2018-11-27T00:41:07.431Z,771.63
2018-11-27T00:41:11.623Z,771.62
2018-11-27T00:41:15.825Z,771.61
2018-11-27T00:41:21.024Z,771.65
2018-11-27T00:41:25.320Z,771.65
2018-11-27T00:41:29.608Z,771.63
2018-11-27T00:41:33.903Z,771.63
2018-11-27T00:41:38.195Z,771.6
2018-11-27T00:41:42.484Z,771.64
2018-11-27T00:41:46.775Z,771.63
2018-11-27T00:41:51.094Z,771.63
2018-11-27T00:41:55.387Z,771.6
2018-11-27T00:41:59.678Z,771.61
2018-11-27T00:42:03.979Z,771.67
2018-11-27T00:42:08.274Z,771.64
2018-11-27T00:42:12.565Z,771.64
2018-11-27T00:42:16.855Z,771.6
2018-11-27T00:42:21.051Z,771.65
2018-11-27T00:42:25.344Z,771.6
2018-11-27T00:42:29.586Z,771.59
2018-11-27T00:42:33.877Z,771.62
2018-11-27T00:42:38.178Z,771.68
2018-11-27T00:42:42.468Z,771.64
2018-11-27T00:42:46.655Z,771.63
2018-11-27T00:42:50.645Z,771.64
2018-11-27T00:42:54.844Z,771.68
2018-11-27T00:42:59.135Z,771.65
2018-11-27T00:43:03.579Z,771.68
2018-11-27T00:43:07.868Z,771.7
2018-11-27T00:43:12.152Z,771.65
2018-11-27T00:43:16.438Z,771.64
2018-11-27T00:43:20.637Z,771.68
2018-11-27T00:43:24.925Z,771.67
2018-11-27T00:43:29.217Z,771.66
2018-11-27T00:43:33.506Z,771.63
2018-11-27T00:43:37.802Z,771.65
2018-11-27T00:43:42.090Z,771.61
2018-11-27T00:43:46.376Z,771.66
2018-11-27T00:43:50.564Z,771.61
2018-11-27T00:43:54.874Z,771.62
2018-11-27T00:43:59.065Z,771.62
2018-11-27T00:44:03.421Z,771.6
2018-11-27T00:44:07.717Z,771.64
2018-11-27T00:44:12.003Z,771.63
2018-11-27T00:44:16.303Z,771.62
2018-11-27T00:44:20.599Z,771.61
2018-11-27T00:44:24.885Z,771.67
2018-11-27T00:44:29.186Z,771.63
2018-11-27T00:44:33.379Z,771.61
2018-11-27T00:44:37.679Z,771.63
2018-11-27T00:44:41.973Z,771.6
2018-11-27T00:44:46.257Z,771.61
2018-11-27T00:44:50.453Z,771.62
2018-11-27T00:44:54.644Z,771.61
2018-11-27T00:44:58.938Z,771.61
2018-11-27T00:45:03.239Z,771.63
2018-11-27T00:45:07.525Z,771.62
2018-11-27T00:45:11.632Z,771.61
2018-11-27T00:45:15.921Z,771.62
2018-11-27T00:45:20.218Z,771.58
2018-11-27T00:45:24.508Z,771.56
2018-11-27T00:45:28.796Z,771.54
2018-11-27T00:45:32.994Z,771.55
2018-11-27T00:45:37.308Z,771.56
2018-11-27T00:45:41.596Z,771.59
2018-11-27T00:45:45.884Z,771.58
2018-11-27T00:45:50.078Z,771.59
2018-11-27T00:45:54.369Z,771.64
2018-11-27T00:45:58.664Z,771.6
2018-11-27T00:46:03.110Z,771.61
2018-11-27T00:46:07.400Z,771.62
2018-11-27T00:46:11.733Z,771.65
2018-11-27T00:46:15.930Z,771.66
2018-11-27T00:46:20.228Z,771.62
2018-11-27T00:46:24.516Z,771.66
2018-11-27T00:46:28.815Z,771.64
2018-11-27T00:46:33.103Z,771.62
2018-11-27T00:46:37.298Z,771.65
2018-11-27T00:46:41.596Z,771.66
2018-11-27T00:46:45.896Z,771.68
2018-11-27T00:46:50.190Z,771.63
2018-11-27T00:46:54.477Z,771.64
2018-11-27T00:46:58.769Z,771.62
2018-11-27T00:47:02.963Z,771.62
2018-11-27T00:47:07.253Z,771.66
2018-11-27T00:47:11.537Z,771.66
2018-11-27T00:47:15.828Z,771.64
2018-11-27T00:47:20.017Z,771.66
2018-11-27T00:47:24.310Z,771.63
2018-11-27T00:47:28.606Z,771.64
2018-11-27T00:47:32.897Z,771.62
2018-11-27T00:47:37.182Z,771.64
2018-11-27T00:47:41.283Z,771.64
2018-11-27T00:47:45.581Z,771.61
2018-11-27T00:47:49.880Z,771.59
2018-11-27T00:47:54.072Z,771.62
2018-11-27T00:47:58.268Z,771.57
2018-11-27T00:48:02.556Z,771.61
2018-11-27T00:48:06.849Z,771.62
2018-11-27T00:48:11.137Z,771.62
2018-11-27T00:48:15.420Z,771.63
2018-11-27T00:48:19.710Z,771.69
2018-11-27T00:48:23.897Z,771.65
2018-11-27T00:48:28.214Z,771.66
2018-11-27T00:48:32.525Z,771.64
2018-11-27T00:48:36.818Z,771.66
2018-11-27T00:48:41.109Z,771.63
2018-11-27T00:48:45.401Z,771.66
2018-11-27T00:48:49.735Z,771.59
2018-11-27T00:48:54.027Z,771.65
2018-11-27T00:48:58.321Z,771.65
2018-11-27T00:49:02.709Z,771.67
2018-11-27T00:49:06.998Z,771.64
2018-11-27T00:49:11.289Z,771.67
2018-11-27T00:49:15.581Z,771.65
2018-11-27T00:49:19.888Z,771.63
2018-11-27T00:49:24.209Z,771.63
2018-11-27T00:49:28.494Z,771.6
2018-11-27T00:49:32.791Z,771.62
2018-11-27T00:49:37.081Z,771.64
2018-11-27T00:49:41.368Z,771.66
2018-11-27T00:49:45.663Z,771.62
2018-11-27T00:49:49.951Z,771.62
2018-11-27T00:49:54.146Z,771.63
2018-11-27T00:49:58.453Z,771.62
2018-11-27T00:50:02.645Z,771.67
2018-11-27T00:50:06.941Z,771.66
2018-11-27T00:50:11.236Z,771.61
2018-11-27T00:50:15.435Z,771.63
2018-11-27T00:50:19.725Z,771.63
2018-11-27T00:50:24.037Z,771.65
2018-11-27T00:50:28.240Z,771.59
2018-11-27T00:50:32.526Z,771.65
2018-11-27T00:50:36.820Z,771.65
2018-11-27T00:50:41.021Z,771.67
2018-11-27T00:50:45.311Z,771.65
2018-11-27T00:50:49.599Z,771.65
2018-11-27T00:50:53.893Z,771.64
2018-11-27T00:50:58.184Z,771.65
2018-11-27T00:51:02.471Z,771.66
2018-11-27T00:51:06.761Z,771.63
2018-11-27T00:51:11.049Z,771.65
2018-11-27T00:51:15.338Z,771.65
2018-11-27T00:51:19.629Z,771.69
2018-11-27T00:51:23.927Z,771.66
2018-11-27T00:51:28.221Z,771.65
2018-11-27T00:51:32.509Z,771.68
2018-11-27T00:51:36.796Z,771.7
2018-11-27T00:51:40.996Z,771.67
2018-11-27T00:51:45.293Z,771.7
2018-11-27T00:51:49.586Z,771.67
2018-11-27T00:51:53.878Z,771.69
2018-11-27T00:51:58.167Z,771.67
2018-11-27T00:52:02.457Z,771.67
2018-11-27T00:52:06.752Z,771.64
2018-11-27T00:52:10.945Z,771.66
2018-11-27T00:52:15.231Z,771.64
2018-11-27T00:52:19.524Z,771.67
2018-11-27T00:52:23.727Z,771.66
2018-11-27T00:52:28.019Z,771.7
2018-11-27T00:52:32.355Z,771.71
2018-11-27T00:52:36.654Z,771.7
2018-11-27T00:52:40.842Z,771.67
2018-11-27T00:52:45.176Z,771.65
2018-11-27T00:52:49.474Z,771.68
2018-11-27T00:52:53.770Z,771.68
2018-11-27T00:52:58.061Z,771.68
2018-11-27T00:53:02.267Z,771.64
2018-11-27T00:53:06.458Z,771.69
2018-11-27T00:53:10.754Z,771.69
2018-11-27T00:53:14.951Z,771.69
2018-11-27T00:53:19.242Z,771.71
2018-11-27T00:53:23.537Z,771.69
2018-11-27T00:53:27.826Z,771.68
2018-11-27T00:53:32.025Z,771.65
2018-11-27T00:53:36.268Z,771.64
2018-11-27T00:53:40.454Z,771.66
2018-11-27T00:53:44.742Z,771.67
2018-11-27T00:53:49.029Z,771.64
2018-11-27T00:53:53.316Z,771.72
2018-11-27T00:53:57.610Z,771.68
2018-11-27T00:54:01.901Z,771.69
2018-11-27T00:54:06.190Z,771.62